createdAt,value
2019-02-04T00:01:01.719Z,52.60
2019-02-04T00:03:30.768Z,52.20
2019-02-04T00:05:59.800Z,52.30
2019-02-04T00:08:29.065Z,52.20
2019-02-04T00:10:59.350Z,52.20
2019-02-04T00:13:28.496Z,52.20
2019-02-04T00:15:57.514Z,52.20
2019-02-04T00:18:26.562Z,52.20
2019-02-04T00:20:55.628Z,52.20
2019-02-04T00:23:24.687Z,52.20
2019-02-04T00:25:53.723Z,52.70
2019-02-04T00:28:22.737Z,52.20
2019-02-04T00:30:51.786Z,52.30
2019-02-04T00:33:20.834Z,52.30
2019-02-04T00:35:49.783Z,52.30
2019-02-04T00:38:18.834Z,52.40
2019-02-04T00:40:47.888Z,52.50
2019-02-04T00:43:16.935Z,52.50
2019-02-04T00:45:45.990Z,52.70
2019-02-04T00:48:15.024Z,52.50
2019-02-04T00:50:44.111Z,52.50
2019-02-04T00:53:13.173Z,52.40
2019-02-04T00:55:42.221Z,52.40
2019-02-04T00:58:11.192Z,52.40
2019-02-04T01:00:40.224Z,52.40
2019-02-04T01:03:09.361Z,52.40
2019-02-04T01:05:38.406Z,52.40
2019-02-04T01:08:07.544Z,52.50
2019-02-04T01:10:36.680Z,52.50
2019-02-04T01:13:05.725Z,52.50
2019-02-04T01:15:34.773Z,52.50
2019-02-04T01:18:03.834Z,52.60
2019-02-04T01:20:32.859Z,52.60
2019-02-04T01:23:01.938Z,52.70
2019-02-04T01:25:30.966Z,52.80
2019-02-04T01:28:00.063Z,52.80
2019-02-04T01:30:29.090Z,52.70
2019-02-04T01:32:58.257Z,52.70
2019-02-04T01:35:27.604Z,52.60
2019-02-04T01:37:56.644Z,52.60
2019-02-04T01:40:26.303Z,52.60
2019-02-04T01:42:55.480Z,52.50
2019-02-04T01:45:24.696Z,52.50
2019-02-04T01:47:53.748Z,52.50
2019-02-04T01:50:23.354Z,52.60
2019-02-04T01:52:52.397Z,52.60
2019-02-04T01:55:21.409Z,52.70
2019-02-04T01:57:52.632Z,52.80
2019-02-04T02:00:32.949Z,52.70
2019-02-04T02:03:03.556Z,52.70
2019-02-04T02:05:32.591Z,52.70
2019-02-04T02:08:01.609Z,52.70
2019-02-04T02:10:30.649Z,52.70
2019-02-04T02:12:59.697Z,52.70
2019-02-04T02:15:28.717Z,52.70
2019-02-04T02:17:57.738Z,52.70
2019-02-04T02:20:28.328Z,52.70
2019-02-04T02:22:57.406Z,52.70
2019-02-04T02:25:26.440Z,52.70
2019-02-04T02:27:55.508Z,52.70
2019-02-04T02:30:28.242Z,52.70
2019-02-04T02:32:57.266Z,52.70
2019-02-04T02:35:26.303Z,52.70
2019-02-04T02:37:55.317Z,52.70
2019-02-04T02:40:26.506Z,52.70
2019-02-04T02:42:55.568Z,52.80
2019-02-04T02:45:24.626Z,52.80
2019-02-04T02:47:53.670Z,52.90
2019-02-04T02:50:22.737Z,52.90
2019-02-04T02:52:51.769Z,52.90
2019-02-04T02:55:20.852Z,52.90
2019-02-04T02:57:49.899Z,52.90
2019-02-04T03:00:21.035Z,52.80
2019-02-04T03:02:50.172Z,52.90
2019-02-04T03:05:19.223Z,52.90
2019-02-04T03:07:48.210Z,52.80
2019-02-04T03:10:19.744Z,52.80
2019-02-04T03:12:49.097Z,52.80
2019-02-04T03:15:18.113Z,53.40
2019-02-04T03:17:52.144Z,52.80
2019-02-04T03:20:17.922Z,52.90
2019-02-04T03:22:46.988Z,52.90
2019-02-04T03:25:16.149Z,53.00
2019-02-04T03:27:45.315Z,53.00
2019-02-04T03:30:22.765Z,53.10
2019-02-04T03:32:53.046Z,53.10
2019-02-04T03:35:22.091Z,53.10
2019-02-04T03:37:52.336Z,53.10
2019-02-04T03:40:23.154Z,53.10
2019-02-04T03:42:53.360Z,53.10
2019-02-04T03:45:22.431Z,53.10
2019-02-04T03:48:03.794Z,53.10
2019-02-04T03:50:22.130Z,53.00
2019-02-04T03:52:51.501Z,53.00
2019-02-04T03:55:20.557Z,53.00
2019-02-04T03:57:49.596Z,53.00
2019-02-04T04:00:22.314Z,53.00
2019-02-04T04:02:51.529Z,53.10
2019-02-04T04:05:20.566Z,53.10
2019-02-04T04:07:49.661Z,53.20
2019-02-04T04:10:18.797Z,53.20
2019-02-04T04:12:47.841Z,53.20
2019-02-04T04:15:16.946Z,53.30
2019-02-04T04:17:46.052Z,53.30
2019-02-04T04:20:15.636Z,54.00
2019-02-04T04:22:44.684Z,53.30
2019-02-04T04:25:14.556Z,53.20
2019-02-04T04:27:43.595Z,53.20
2019-02-04T04:30:20.884Z,53.20
2019-02-04T04:32:51.346Z,53.20
2019-02-04T04:35:21.502Z,53.20
2019-02-04T04:37:50.538Z,53.10
2019-02-04T04:40:19.589Z,53.20
2019-02-04T04:42:48.642Z,53.20
2019-02-04T04:45:22.236Z,53.10
2019-02-04T04:47:52.002Z,53.20
2019-02-04T04:50:21.137Z,53.20
2019-02-04T04:52:50.363Z,53.40
2019-02-04T04:55:24.531Z,53.30
2019-02-04T04:57:53.570Z,53.40
2019-02-04T05:00:27.369Z,53.40
2019-02-04T05:02:56.354Z,53.40
2019-02-04T05:05:25.368Z,53.40
2019-02-04T05:07:54.414Z,53.40
2019-02-04T05:10:23.584Z,53.40
2019-02-04T05:12:52.613Z,53.40
2019-02-04T05:15:23.842Z,53.30
2019-02-04T05:17:53.172Z,53.30
2019-02-04T05:20:22.349Z,53.30
2019-02-04T05:22:51.417Z,53.20
2019-02-04T05:25:20.437Z,53.20
2019-02-04T05:27:49.410Z,53.10
2019-02-04T05:30:20.362Z,53.20
2019-02-04T05:32:49.497Z,53.20
2019-02-04T05:35:18.673Z,53.30
2019-02-04T05:37:47.751Z,53.30
2019-02-04T05:40:16.932Z,53.30
2019-02-04T05:42:46.255Z,53.30
2019-02-04T05:45:18.138Z,53.20
2019-02-04T05:47:47.162Z,53.10
2019-02-04T05:50:17.628Z,53.00
2019-02-04T05:52:46.929Z,52.90
2019-02-04T05:55:17.021Z,52.70
2019-02-04T05:57:46.071Z,52.60
2019-02-04T06:00:19.403Z,52.50
2019-02-04T06:02:49.925Z,52.40
2019-02-04T06:05:21.189Z,52.30
2019-02-04T06:07:50.346Z,52.30
2019-02-04T06:10:19.574Z,52.30
2019-02-04T06:12:48.914Z,52.00
2019-02-04T06:15:17.996Z,51.90
2019-02-04T06:17:47.046Z,51.80
2019-02-04T06:20:17.545Z,51.60
2019-02-04T06:22:46.561Z,51.40
2019-02-04T06:25:15.612Z,51.40
2019-02-04T06:27:44.661Z,51.20
2019-02-04T06:30:13.965Z,51.20
2019-02-04T06:32:43.013Z,51.20
2019-02-04T06:35:12.117Z,51.20
2019-02-04T06:37:41.122Z,51.20
2019-02-04T06:40:11.356Z,51.20
2019-02-04T06:42:40.361Z,51.30
2019-02-04T06:45:10.917Z,51.30
2019-02-04T06:47:39.952Z,51.40
2019-02-04T06:50:11.280Z,51.50
2019-02-04T06:52:41.152Z,51.50
2019-02-04T06:55:16.195Z,51.60
2019-02-04T06:57:45.265Z,51.60
2019-02-04T07:00:14.859Z,51.60
2019-02-04T07:02:44.946Z,51.70
2019-02-04T07:05:13.952Z,51.80
2019-02-04T07:07:42.969Z,51.80
2019-02-04T07:10:14.545Z,51.80
2019-02-04T07:12:43.605Z,51.90
2019-02-04T07:15:12.664Z,51.90
2019-02-04T07:17:41.728Z,51.90
2019-02-04T07:20:13.707Z,51.90
2019-02-04T07:22:42.758Z,51.90
2019-02-04T07:25:12.287Z,51.90
2019-02-04T07:27:41.385Z,52.20
2019-02-04T07:30:13.309Z,51.90
2019-02-04T07:32:42.333Z,52.00
2019-02-04T07:35:12.187Z,51.90
2019-02-04T07:37:41.246Z,52.10
2019-02-04T07:40:13.756Z,51.90
2019-02-04T07:42:44.281Z,52.00
2019-02-04T07:45:13.301Z,51.90
2019-02-04T07:47:42.382Z,52.00
2019-02-04T07:50:11.424Z,52.00
2019-02-04T07:52:40.461Z,52.00
2019-02-04T07:55:09.528Z,52.00
2019-02-04T07:57:38.537Z,52.00
2019-02-04T08:00:17.078Z,52.00
2019-02-04T08:02:46.706Z,52.00
2019-02-04T08:05:15.722Z,52.00
2019-02-04T08:07:44.727Z,51.90
2019-02-04T08:10:13.888Z,52.00
2019-02-04T08:12:42.934Z,52.00
2019-02-04T08:15:14.956Z,52.00
2019-02-04T08:17:43.997Z,52.00
2019-02-04T08:20:13.032Z,51.90
2019-02-04T08:22:42.100Z,51.80
2019-02-04T08:25:11.773Z,51.90
2019-02-04T08:27:40.796Z,51.90
2019-02-04T08:30:17.408Z,51.80
2019-02-04T08:32:47.742Z,51.80
2019-02-04T08:35:16.783Z,51.80
2019-02-04T08:37:45.827Z,51.80
2019-02-04T08:40:14.948Z,51.70
2019-02-04T08:42:44.084Z,51.70
2019-02-04T08:45:13.524Z,51.60
2019-02-04T08:47:42.584Z,51.60
2019-02-04T08:50:13.457Z,51.50
2019-02-04T08:52:42.521Z,51.50
2019-02-04T08:55:11.587Z,51.50
2019-02-04T08:57:40.590Z,51.50
2019-02-04T09:00:11.860Z,51.50
2019-02-04T09:02:40.918Z,51.50
2019-02-04T09:05:10.470Z,51.50
2019-02-04T09:07:39.512Z,51.50
2019-02-04T09:10:09.319Z,51.40
2019-02-04T09:12:38.365Z,51.50
2019-02-04T09:15:09.251Z,51.40
2019-02-04T09:17:38.308Z,51.40
2019-02-04T09:20:10.165Z,51.50
2019-02-04T09:22:40.592Z,51.40
2019-02-04T09:25:11.232Z,51.50
2019-02-04T09:27:40.293Z,51.50
2019-02-04T09:30:13.184Z,51.50
2019-02-04T09:32:42.279Z,51.50
2019-02-04T09:35:12.694Z,51.50
2019-02-04T09:37:42.532Z,51.50
2019-02-04T09:40:14.839Z,51.50
2019-02-04T09:42:43.894Z,51.50
2019-02-04T09:45:14.224Z,51.40
2019-02-04T09:47:43.271Z,51.40
2019-02-04T09:50:21.505Z,51.40
2019-02-04T09:52:47.037Z,51.40
2019-02-04T09:55:21.742Z,51.40
2019-02-04T09:57:50.786Z,51.40
2019-02-04T10:00:22.084Z,51.40
2019-02-04T10:02:52.782Z,51.40
2019-02-04T10:05:21.822Z,51.40
2019-02-04T10:07:50.874Z,51.40
2019-02-04T10:10:22.103Z,51.40
2019-02-04T10:12:52.577Z,51.40
2019-02-04T10:15:23.963Z,51.40
2019-02-04T10:17:53.001Z,51.40
2019-02-04T10:20:32.967Z,51.40
2019-02-04T10:22:52.690Z,51.40
2019-02-04T10:25:23.705Z,51.40
2019-02-04T10:27:52.805Z,51.40
2019-02-04T10:30:22.485Z,51.40
2019-02-04T10:32:51.612Z,51.40
2019-02-04T10:35:20.654Z,51.40
2019-02-04T10:37:50.487Z,51.60
2019-02-04T10:40:21.129Z,51.40
2019-02-04T10:42:50.175Z,51.40
2019-02-04T10:45:19.493Z,51.40
2019-02-04T10:47:48.643Z,51.40
2019-02-04T10:50:26.042Z,51.40
2019-02-04T10:52:56.364Z,51.40
2019-02-04T10:55:25.418Z,51.40
2019-02-04T10:57:54.575Z,51.40
2019-02-04T11:00:26.195Z,51.50
2019-02-04T11:02:55.597Z,51.50
2019-02-04T11:05:26.702Z,51.50
2019-02-04T11:07:55.844Z,51.50
2019-02-04T11:10:28.565Z,51.40
2019-02-04T11:12:57.651Z,51.40
2019-02-04T11:15:26.750Z,51.40
2019-02-04T11:17:56.111Z,51.40
2019-02-04T11:20:26.551Z,51.40
2019-02-04T11:22:55.675Z,51.40
2019-02-04T11:25:24.628Z,51.40
2019-02-04T11:27:53.694Z,51.50
2019-02-04T11:30:36.986Z,51.40
2019-02-04T11:33:07.354Z,51.40
2019-02-04T11:35:36.400Z,51.40
2019-02-04T11:38:05.443Z,51.40
2019-02-04T11:40:36.275Z,51.50
2019-02-04T11:43:05.506Z,51.50
2019-02-04T11:45:34.508Z,51.60
2019-02-04T11:48:04.618Z,51.60
2019-02-04T11:50:33.683Z,51.60
2019-02-04T11:53:02.723Z,51.60
2019-02-04T11:55:31.767Z,51.60
2019-02-04T11:58:02.185Z,51.60
2019-02-04T12:00:31.373Z,51.60
2019-02-04T12:03:00.710Z,51.60
2019-02-04T12:05:29.795Z,51.50
2019-02-04T12:07:58.834Z,51.50
2019-02-04T12:10:36.758Z,51.50
2019-02-04T12:13:06.715Z,51.50
2019-02-04T12:15:35.773Z,51.50
2019-02-04T12:18:04.953Z,51.50
2019-02-04T12:20:33.953Z,51.50
2019-02-04T12:23:02.959Z,51.60
2019-02-04T12:25:31.997Z,51.60
2019-02-04T12:28:01.080Z,51.60
2019-02-04T12:30:32.439Z,51.50
2019-02-04T12:33:01.746Z,51.60
2019-02-04T12:35:30.771Z,51.60
2019-02-04T12:37:59.800Z,51.60
2019-02-04T12:40:28.841Z,51.70
2019-02-04T12:42:57.894Z,51.70
2019-02-04T12:45:29.178Z,51.80
2019-02-04T12:48:00.676Z,51.70
2019-02-04T12:50:28.965Z,51.70
2019-02-04T12:52:58.036Z,51.70
2019-02-04T12:55:28.491Z,51.70
2019-02-04T12:57:57.554Z,51.60
2019-02-04T13:00:28.820Z,51.60
2019-02-04T13:02:57.956Z,51.60
2019-02-04T13:05:34.993Z,51.60
2019-02-04T13:08:04.486Z,51.60
2019-02-04T13:10:33.627Z,51.60
2019-02-04T13:13:02.666Z,51.60
2019-02-04T13:15:31.730Z,51.60
2019-02-04T13:18:00.919Z,51.60
2019-02-04T13:20:29.968Z,51.70
2019-02-04T13:22:59.390Z,51.70
2019-02-04T13:25:28.761Z,51.70
2019-02-04T13:27:57.825Z,51.80
2019-02-04T13:30:27.605Z,51.80
2019-02-04T13:32:56.596Z,51.80
2019-02-04T13:35:25.578Z,51.80
2019-02-04T13:37:55.141Z,51.80
2019-02-04T13:40:25.668Z,51.80
2019-02-04T13:42:56.594Z,51.80
2019-02-04T13:45:25.704Z,51.30
2019-02-04T13:47:54.707Z,51.70
2019-02-04T13:50:23.726Z,51.70
2019-02-04T13:52:52.831Z,51.70
2019-02-04T13:55:28.650Z,51.70
2019-02-04T13:57:57.869Z,51.70
2019-02-04T14:00:28.337Z,51.80
2019-02-04T14:02:59.217Z,51.80
2019-02-04T14:05:31.142Z,51.90
2019-02-04T14:08:00.047Z,52.10
2019-02-04T14:10:35.080Z,52.40
2019-02-04T14:13:04.193Z,52.50
2019-02-04T14:15:35.477Z,52.60
2019-02-04T14:18:03.981Z,52.60
2019-02-04T14:20:34.092Z,52.60
2019-02-04T14:23:03.169Z,52.50
2019-02-04T14:25:32.233Z,52.40
2019-02-04T14:28:03.453Z,52.30
2019-02-04T14:30:33.675Z,52.20
2019-02-04T14:33:02.741Z,52.20
2019-02-04T14:35:31.711Z,52.00
2019-02-04T14:38:00.744Z,52.00
2019-02-04T14:40:29.766Z,51.90
2019-02-04T14:43:08.410Z,51.80
2019-02-04T14:46:30.435Z,51.80
2019-02-04T14:49:33.089Z,51.80
2019-02-04T14:52:21.450Z,51.60
2019-02-04T14:55:35.957Z,51.40
2019-02-04T14:58:29.973Z,51.20
2019-02-04T15:01:19.653Z,51.80
2019-02-04T15:04:18.585Z,51.00
2019-02-04T15:07:30.671Z,51.00
2019-02-04T15:10:51.486Z,51.00
2019-02-04T15:13:41.451Z,51.00
2019-02-04T15:16:31.021Z,50.80
2019-02-04T15:19:42.442Z,50.70
2019-02-04T15:22:34.614Z,50.70
2019-02-04T15:25:32.098Z,50.60
2019-02-04T15:28:29.268Z,50.50
2019-02-04T15:31:24.650Z,50.50
2019-02-04T15:34:19.985Z,50.40
2019-02-04T15:37:29.810Z,50.30
2019-02-04T15:40:23.201Z,50.20
2019-02-04T15:43:25.078Z,50.10
2019-02-04T15:46:36.483Z,50.10
2019-02-04T15:49:50.737Z,50.00
2019-02-04T15:52:19.329Z,49.60
2019-02-04T15:54:48.370Z,49.90
2019-02-04T15:57:17.915Z,49.90
2019-02-04T15:59:46.977Z,49.80
2019-02-04T16:02:16.072Z,49.80
2019-02-04T16:04:45.132Z,49.80
2019-02-04T16:07:14.536Z,49.80
2019-02-04T16:09:43.581Z,49.80
2019-02-04T16:12:12.954Z,49.80
2019-02-04T16:14:42.099Z,49.70
2019-02-04T16:17:11.867Z,49.70
2019-02-04T16:19:40.980Z,49.70
2019-02-04T16:22:10.045Z,49.70
2019-02-04T16:24:39.090Z,49.60
2019-02-04T16:27:08.341Z,49.60
2019-02-04T16:29:37.362Z,49.60
2019-02-04T16:32:06.744Z,49.70
2019-02-04T16:34:35.774Z,49.80
2019-02-04T16:37:04.803Z,49.80
2019-02-04T16:39:33.789Z,50.10
2019-02-04T16:42:02.847Z,49.90
2019-02-04T16:44:31.849Z,49.80
2019-02-04T16:47:00.884Z,49.70
2019-02-04T16:49:29.958Z,49.60
2019-02-04T16:52:04.629Z,49.60
2019-02-04T16:54:33.636Z,49.50
2019-02-04T16:57:02.927Z,49.60
2019-02-04T16:59:31.977Z,49.70
2019-02-04T17:02:02.593Z,50.00
2019-02-04T17:04:31.658Z,50.10
2019-02-04T17:07:00.707Z,50.20
2019-02-04T17:09:29.796Z,50.20
2019-02-04T17:11:59.061Z,50.20
2019-02-04T17:14:28.078Z,50.20
2019-02-04T17:16:57.094Z,50.20
2019-02-04T17:19:26.108Z,50.20
2019-02-04T17:21:55.186Z,50.10
2019-02-04T17:24:27.513Z,50.10
2019-02-04T17:26:56.874Z,50.10
2019-02-04T17:29:25.957Z,50.10
2019-02-04T17:31:54.996Z,50.10
2019-02-04T17:34:24.137Z,50.10
2019-02-04T17:36:53.190Z,50.10
2019-02-04T17:39:22.331Z,50.10
2019-02-04T17:41:51.657Z,50.10
2019-02-04T17:44:20.754Z,50.10
2019-02-04T17:46:49.917Z,50.10
2019-02-04T17:49:18.968Z,50.70
2019-02-04T17:51:48.132Z,50.00
2019-02-04T17:54:17.221Z,50.00
2019-02-04T17:56:46.550Z,49.90
2019-02-04T17:59:15.638Z,49.90
2019-02-04T18:01:44.736Z,49.90
2019-02-04T18:04:13.780Z,49.80
2019-02-04T18:06:42.875Z,49.90
2019-02-04T18:09:11.938Z,49.90
2019-02-04T18:11:41.362Z,49.80
2019-02-04T18:14:10.424Z,49.80
2019-02-04T18:20:47.603Z,49.80
2019-02-04T18:23:16.732Z,49.80
2019-02-04T18:25:45.854Z,49.80
2019-02-04T18:28:14.941Z,49.90
2019-02-04T18:30:44.021Z,49.80
2019-02-04T18:33:13.104Z,50.50
2019-02-04T18:35:42.551Z,49.80
2019-02-04T18:38:11.635Z,49.70
2019-02-04T18:40:40.686Z,49.70
2019-02-04T18:43:09.754Z,49.70
2019-02-04T18:45:38.825Z,49.70
2019-02-04T18:48:07.960Z,49.70
2019-02-04T18:50:37.202Z,49.70
2019-02-04T18:53:06.266Z,49.70
2019-02-04T18:55:35.250Z,49.30
2019-02-04T18:58:04.273Z,48.80
2019-02-04T19:00:33.300Z,48.70
2019-02-04T19:03:02.907Z,48.70
2019-02-04T19:05:31.940Z,48.90
2019-02-04T19:08:00.981Z,49.00
2019-02-04T19:10:30.050Z,49.30
2019-02-04T19:12:59.091Z,49.40
2019-02-04T19:15:28.139Z,49.50
2019-02-04T19:18:00.127Z,49.70
2019-02-04T19:20:29.164Z,49.80
2019-02-04T19:23:01.207Z,49.90
2019-02-04T19:25:30.268Z,50.00
2019-02-04T19:27:59.332Z,50.10
2019-02-04T19:30:40.205Z,50.10
2019-02-04T19:33:10.435Z,50.10
2019-02-04T19:35:39.517Z,50.20
2019-02-04T19:38:08.544Z,50.20
2019-02-04T19:40:37.601Z,50.40
2019-02-04T19:43:06.770Z,50.40
2019-02-04T19:45:35.978Z,48.90
2019-02-04T19:48:05.040Z,48.00
2019-02-04T19:50:35.202Z,47.40
2019-02-04T19:53:04.348Z,47.10
2019-02-04T19:55:33.404Z,46.90
2019-02-04T19:58:02.399Z,46.70
2019-02-04T20:00:31.777Z,46.70
2019-02-04T20:03:00.805Z,46.60
2019-02-04T20:05:29.930Z,46.70
2019-02-04T20:07:58.974Z,46.70
2019-02-04T20:10:28.482Z,46.60
2019-02-04T20:12:57.482Z,46.80
2019-02-04T20:15:27.571Z,48.40
2019-02-04T20:17:56.621Z,49.40
2019-02-04T20:20:25.770Z,50.10
2019-02-04T20:22:55.049Z,50.40
2019-02-04T20:25:26.057Z,50.80
2019-02-04T20:27:55.090Z,50.90
2019-02-04T20:30:27.145Z,50.90
2019-02-04T20:32:56.848Z,51.10
2019-02-04T20:35:25.900Z,51.00
2019-02-04T20:37:54.968Z,51.00
2019-02-04T20:40:24.066Z,51.00
2019-02-04T20:42:53.121Z,51.00
2019-02-04T20:45:22.359Z,50.90
2019-02-04T20:47:51.467Z,51.60
2019-02-04T20:50:41.594Z,50.90
2019-02-04T20:53:17.247Z,50.80
2019-02-04T20:55:48.947Z,50.80
2019-02-04T20:58:17.928Z,50.80
2019-02-04T21:00:46.959Z,50.80
2019-02-04T21:03:17.241Z,50.70
2019-02-04T21:06:06.858Z,50.70
2019-02-04T21:08:38.370Z,50.60
2019-02-04T21:11:06.541Z,50.70
2019-02-04T21:13:36.850Z,50.70
2019-02-04T21:16:05.919Z,50.60
2019-02-04T21:18:34.982Z,50.60
2019-02-04T21:21:04.026Z,50.50
2019-02-04T21:23:33.090Z,50.40
2019-02-04T21:26:02.072Z,50.30
2019-02-04T21:28:31.079Z,50.30
2019-02-04T21:31:00.139Z,50.20
2019-02-04T21:33:29.624Z,50.20
2019-02-04T21:35:58.706Z,50.20
2019-02-04T21:38:27.774Z,50.90
2019-02-04T21:40:56.813Z,50.20
2019-02-04T21:43:25.833Z,50.30
2019-02-04T21:45:54.869Z,50.30
2019-02-04T21:48:23.963Z,50.30
2019-02-04T21:50:53.188Z,50.30
2019-02-04T21:53:23.517Z,50.30
2019-02-04T21:55:52.936Z,50.30
2019-02-04T21:58:22.500Z,50.30
2019-02-04T22:00:51.647Z,50.40
2019-02-04T22:03:21.027Z,50.40
2019-02-04T22:05:50.355Z,50.50
2019-02-04T22:08:19.476Z,50.50
2019-02-04T22:10:48.681Z,50.60
2019-02-04T22:13:17.662Z,50.60
2019-02-04T22:15:47.228Z,50.60
2019-02-04T22:18:16.368Z,50.60
2019-02-04T22:20:45.709Z,50.70
2019-02-04T22:23:14.880Z,50.80
2019-02-04T22:25:44.233Z,50.80
2019-02-04T22:28:13.305Z,50.90
2019-02-04T22:30:42.671Z,50.90
2019-02-04T22:33:12.251Z,50.90
2019-02-04T22:35:41.269Z,51.00
2019-02-04T22:38:10.333Z,51.00
2019-02-04T22:40:39.637Z,51.10
2019-02-04T22:43:09.348Z,51.10
2019-02-04T22:45:38.716Z,51.10
2019-02-04T22:48:09.536Z,51.80
2019-02-04T22:50:39.160Z,51.30
2019-02-04T22:53:08.215Z,51.30
2019-02-04T22:55:37.540Z,51.30
2019-02-04T22:58:06.624Z,51.40
2019-02-04T23:01:03.556Z,51.40
2019-02-04T23:03:32.634Z,51.50
2019-02-04T23:06:01.672Z,51.50
2019-02-04T23:08:30.723Z,51.50
2019-02-04T23:10:59.754Z,51.60
2019-02-04T23:13:28.828Z,51.60
2019-02-04T23:15:57.886Z,51.70
2019-02-04T23:18:26.948Z,52.40
2019-02-04T23:20:56.010Z,51.70
2019-02-04T23:23:25.071Z,51.70
2019-02-04T23:25:54.140Z,51.80
2019-02-04T23:28:23.170Z,51.80
2019-02-04T23:30:52.335Z,51.80
2019-02-04T23:33:21.384Z,51.80
2019-02-04T23:35:50.406Z,51.80
2019-02-04T23:38:19.451Z,51.90
2019-02-04T23:40:48.489Z,51.90
2019-02-04T23:43:17.556Z,52.00
2019-02-04T23:45:46.598Z,52.10
2019-02-04T23:48:15.622Z,52.10
2019-02-04T23:50:44.688Z,52.10
2019-02-04T23:53:13.817Z,52.20
2019-02-04T23:55:54.147Z,52.20
2019-02-04T23:58:13.602Z,52.20
